sensor_id;sensor_type;location;lat;lon;timestamp;pressure;altitude;pressure_sealevel;temperature;humidity
34185;BME280;20454;48.100;11.776;2023-04-10T00:01:07;96102.63;;;1.62;100.00
34185;BME280;20454;48.100;11.776;2023-04-10T00:03:33;96087.19;;;1.56;100.00
34185;BME280;20454;48.100;11.776;2023-04-10T00:05:59;96110.03;;;1.62;100.00
34185;BME280;20454;48.100;11.776;2023-04-10T00:08:24;96089.66;;;1.58;100.00
34185;BME280;20454;48.100;11.776;2023-04-10T00:10:50;96088.00;;;1.57;100.00
34185;BME280;20454;48.100;11.776;2023-04-10T00:13:17;96101.47;;;1.58;100.00
34185;BME280;20454;48.100;11.776;2023-04-10T00:15:43;96108.63;;;1.59;100.00
34185;BME280;20454;48.100;11.776;2023-04-10T00:18:08;96107.22;;;1.57;100.00
34185;BME280;20454;48.100;11.776;2023-04-10T00:20:34;96104.72;;;1.55;100.00
34185;BME280;20454;48.100;11.776;2023-04-10T00:23:00;96110.72;;;1.52;100.00
34185;BME280;20454;48.100;11.776;2023-04-10T00:25:25;96106.88;;;1.53;100.00
34185;BME280;20454;48.100;11.776;2023-04-10T00:27:52;96105.22;;;1.52;100.00
34185;BME280;20454;48.100;11.776;2023-04-10T00:30:18;96097.53;;;1.49;100.00
34185;BME280;20454;48.100;11.776;2023-04-10T00:32:44;96107.63;;;1.49;100.00
34185;BME280;20454;48.100;11.776;2023-04-10T00:35:09;96107.06;;;1.47;100.00
34185;BME280;20454;48.100;11.776;2023-04-10T00:37:35;96097.09;;;1.41;100.00
34185;BME280;20454;48.100;11.776;2023-04-10T00:40:02;96092.94;;;1.38;100.00
34185;BME280;20454;48.100;11.776;2023-04-10T00:42:27;96098.44;;;1.38;100.00
34185;BME280;20454;48.100;11.776;2023-04-10T00:44:53;96097.03;;;1.36;100.00
34185;BME280;20454;48.100;11.776;2023-04-10T00:47:19;96084.59;;;1.28;100.00
34185;BME280;20454;48.100;11.776;2023-04-10T00:49:44;96088.38;;;1.27;100.00
34185;BME280;20454;48.100;11.776;2023-04-10T00:52:10;96074.63;;;1.22;100.00
34185;BME280;20454;48.100;11.776;2023-04-10T00:54:36;96080.91;;;1.23;100.00
34185;BME280;20454;48.100;11.776;2023-04-10T00:57:02;96075.44;;;1.23;100.00
34185;BME280;20454;48.100;11.776;2023-04-10T00:59:29;96080.84;;;1.18;100.00
34185;BME280;20454;48.100;11.776;2023-04-10T01:01:56;96083.59;;;1.18;100.00
34185;BME280;20454;48.100;11.776;2023-04-10T01:04:22;96084.59;;;1.12;100.00
34185;BME280;20454;48.100;11.776;2023-04-10T01:09:34;96085.59;;;1.06;100.00
34185;BME280;20454;48.100;11.776;2023-04-10T01:12:24;96077.59;;;1.04;100.00
34185;BME280;20454;48.100;11.776;2023-04-10T01:15:24;96083.31;;;1.03;100.00
34185;BME280;20454;48.100;11.776;2023-04-10T01:20:21;96078.25;;;0.95;100.00
34185;BME280;20454;48.100;11.776;2023-04-10T01:23:19;96084.91;;;0.99;100.00
34185;BME280;20454;48.100;11.776;2023-04-10T01:31:12;96077.69;;;0.93;100.00
34185;BME280;20454;48.100;11.776;2023-04-10T01:33:42;96090.53;;;0.92;100.00
34185;BME280;20454;48.100;11.776;2023-04-10T01:36:10;96072.41;;;0.86;100.00
34185;BME280;20454;48.100;11.776;2023-04-10T01:38:39;96085.81;;;0.88;100.00
34185;BME280;20454;48.100;11.776;2023-04-10T01:41:06;96082.25;;;0.87;100.00
34185;BME280;20454;48.100;11.776;2023-04-10T01:43:32;96068.94;;;0.79;100.00
34185;BME280;20454;48.100;11.776;2023-04-10T01:45:58;96069.78;;;0.80;100.00
34185;BME280;20454;48.100;11.776;2023-04-10T01:48:26;96064.56;;;0.78;100.00
34185;BME280;20454;48.100;11.776;2023-04-10T01:50:53;96053.53;;;0.73;100.00
34185;BME280;20454;48.100;11.776;2023-04-10T01:53:19;96049.97;;;0.73;100.00
34185;BME280;20454;48.100;11.776;2023-04-10T01:55:46;96062.66;;;0.79;100.00
34185;BME280;20454;48.100;11.776;2023-04-10T01:58:12;96055.78;;;0.76;100.00
34185;BME280;20454;48.100;11.776;2023-04-10T04:01:06;96050.03;;;0.17;100.00
34185;BME280;20454;48.100;11.776;2023-04-10T04:03:32;96049.81;;;0.18;100.00
34185;BME280;20454;48.100;11.776;2023-04-10T04:05:57;96046.78;;;0.20;100.00
34185;BME280;20454;48.100;11.776;2023-04-10T04:08:23;96049.06;;;0.23;100.00
34185;BME280;20454;48.100;11.776;2023-04-10T04:10:49;96056.53;;;0.27;100.00
34185;BME280;20454;48.100;11.776;2023-04-10T04:13:14;96059.84;;;0.29;100.00
34185;BME280;20454;48.100;11.776;2023-04-10T04:15:40;96061.03;;;0.33;100.00
34185;BME280;20454;48.100;11.776;2023-04-10T04:18:08;96058.53;;;0.32;100.00
34185;BME280;20454;48.100;11.776;2023-04-10T04:20:33;96064.09;;;0.37;100.00
34185;BME280;20454;48.100;11.776;2023-04-10T04:22:59;96065.00;;;0.42;100.00
34185;BME280;20454;48.100;11.776;2023-04-10T04:25:24;96059.19;;;0.39;100.00
34185;BME280;20454;48.100;11.776;2023-04-10T04:27:50;96061.53;;;0.47;100.00
34185;BME280;20454;48.100;11.776;2023-04-10T04:30:16;96061.81;;;0.45;100.00
34185;BME280;20454;48.100;11.776;2023-04-10T04:32:42;96051.34;;;0.42;100.00
34185;BME280;20454;48.100;11.776;2023-04-10T04:35:07;96051.44;;;0.47;100.00
34185;BME280;20454;48.100;11.776;2023-04-10T04:37:33;96059.41;;;0.49;100.00
34185;BME280;20454;48.100;11.776;2023-04-10T04:40:00;96058.78;;;0.47;100.00
34185;BME280;20454;48.100;11.776;2023-04-10T04:42:25;96063.19;;;0.48;100.00
34185;BME280;20454;48.100;11.776;2023-04-10T04:44:51;96050.59;;;0.47;100.00
34185;BME280;20454;48.100;11.776;2023-04-10T06:02:26;96066.13;;;2.00;100.00
34185;BME280;20454;48.100;11.776;2023-04-10T06:04:52;96072.13;;;2.18;100.00
34185;BME280;20454;48.100;11.776;2023-04-10T06:07:17;96072.00;;;2.30;100.00
34185;BME280;20454;48.100;11.776;2023-04-10T06:09:43;96075.09;;;2.38;100.00
34185;BME280;20454;48.100;11.776;2023-04-10T06:12:09;96080.78;;;2.53;100.00
34185;BME280;20454;48.100;11.776;2023-04-10T06:14:34;96087.44;;;2.62;100.00
34185;BME280;20454;48.100;11.776;2023-04-10T06:17:00;96090.81;;;2.69;100.00
34185;BME280;20454;48.100;11.776;2023-04-10T06:19:26;96084.91;;;2.82;100.00
34185;BME280;20454;48.100;11.776;2023-04-10T06:21:52;96092.16;;;2.93;100.00
34185;BME280;20454;48.100;11.776;2023-04-10T06:24:17;96090.59;;;3.02;100.00
34185;BME280;20454;48.100;11.776;2023-04-10T06:26:43;96089.56;;;3.08;100.00
34185;BME280;20454;48.100;11.776;2023-04-10T06:29:09;96085.78;;;3.19;100.00
34185;BME280;20454;48.100;11.776;2023-04-10T06:31:35;96084.50;;;3.32;100.00
34185;BME280;20454;48.100;11.776;2023-04-10T06:34:00;96089.63;;;3.50;100.00
34185;BME280;20454;48.100;11.776;2023-04-10T06:36:26;96075.13;;;3.59;98.40
34185;BME280;20454;48.100;11.776;2023-04-10T06:38:52;96078.81;;;3.80;98.01
34185;BME280;20454;48.100;11.776;2023-04-10T06:41:17;96087.94;;;3.85;97.83
34185;BME280;20454;48.100;11.776;2023-04-10T06:43:43;96076.44;;;3.93;96.56
34185;BME280;20454;48.100;11.776;2023-04-10T06:46:10;96083.44;;;4.16;93.57
34185;BME280;20454;48.100;11.776;2023-04-10T06:48:36;96079.63;;;4.27;93.63
34185;BME280;20454;48.100;11.776;2023-04-10T06:51:02;96069.19;;;4.34;93.60
34185;BME280;20454;48.100;11.776;2023-04-10T06:53:28;96065.34;;;4.40;94.23
34185;BME280;20454;48.100;11.776;2023-04-10T06:55:54;96057.94;;;4.50;93.20
34185;BME280;20454;48.100;11.776;2023-04-10T06:58:19;96063.22;;;4.61;93.23
34185;BME280;20454;48.100;11.776;2023-04-10T07:29:15;96043.13;;;6.01;80.94
34185;BME280;20454;48.100;11.776;2023-04-10T07:31:41;96046.09;;;6.19;78.50
34185;BME280;20454;48.100;11.776;2023-04-10T07:34:07;96051.34;;;6.16;79.22
34185;BME280;20454;48.100;11.776;2023-04-10T07:36:33;96053.25;;;6.25;79.01
34185;BME280;20454;48.100;11.776;2023-04-10T07:38:58;96052.66;;;6.33;78.49
34185;BME280;20454;48.100;11.776;2023-04-10T07:41:24;96050.41;;;6.50;77.25
34185;BME280;20454;48.100;11.776;2023-04-10T07:43:49;96042.94;;;6.46;79.85
34185;BME280;20454;48.100;11.776;2023-04-10T07:46:16;96049.25;;;6.56;79.86
34185;BME280;20454;48.100;11.776;2023-04-10T07:48:42;96048.69;;;6.59;77.96
34185;BME280;20454;48.100;11.776;2023-04-10T07:51:08;96060.47;;;6.80;78.88
34185;BME280;20454;48.100;11.776;2023-04-10T07:53:35;96046.06;;;6.88;77.17
34185;BME280;20454;48.100;11.776;2023-04-10T07:56:01;96052.94;;;6.90;78.23
34185;BME280;20454;48.100;11.776;2023-04-10T07:58:27;96042.09;;;6.99;78.47
34185;BME280;20454;48.100;11.776;2023-04-10T08:00:52;96053.88;;;7.19;77.85
34185;BME280;20454;48.100;11.776;2023-04-10T08:03:18;96059.59;;;7.28;77.32
34185;BME280;20454;48.100;11.776;2023-04-10T08:05:44;96044.88;;;7.32;76.80
34185;BME280;20454;48.100;11.776;2023-04-10T08:08:10;96047.84;;;7.46;76.98
34185;BME280;20454;48.100;11.776;2023-04-10T08:10:36;96048.31;;;7.58;76.37
34185;BME280;20454;48.100;11.776;2023-04-10T08:13:03;96051.69;;;7.78;75.11
34185;BME280;20454;48.100;11.776;2023-04-10T08:15:28;96039.34;;;7.94;75.15
34185;BME280;20454;48.100;11.776;2023-04-10T08:17:54;96049.81;;;8.02;74.37
34185;BME280;20454;48.100;11.776;2023-04-10T08:20:19;96045.22;;;8.16;71.96
34185;BME280;20454;48.100;11.776;2023-04-10T08:22:45;96051.91;;;8.39;69.87
34185;BME280;20454;48.100;11.776;2023-04-10T08:25:11;96039.94;;;8.43;69.59
34185;BME280;20454;48.100;11.776;2023-04-10T08:27:37;96045.59;;;8.57;66.19
34185;BME280;20454;48.100;11.776;2023-04-10T08:30:03;96044.94;;;8.65;67.15
34185;BME280;20454;48.100;11.776;2023-04-10T08:32:29;96049.47;;;8.79;65.25
34185;BME280;20454;48.100;11.776;2023-04-10T09:57:50;95942.28;;;14.57;46.89
34185;BME280;20454;48.100;11.776;2023-04-10T10:00:16;95942.94;;;14.91;46.61
34185;BME280;20454;48.100;11.776;2023-04-10T10:02:43;95931.16;;;15.26;44.39
34185;BME280;20454;48.100;11.776;2023-04-10T10:05:09;95930.88;;;15.48;43.00
34185;BME280;20454;48.100;11.776;2023-04-10T10:07:35;95926.53;;;15.51;42.83
34185;BME280;20454;48.100;11.776;2023-04-10T10:10:01;95929.06;;;15.64;41.81
34185;BME280;20454;48.100;11.776;2023-04-10T10:12:49;95924.75;;;15.99;43.62
34185;BME280;20454;48.100;11.776;2023-04-10T10:15:25;95916.81;;;16.46;40.67
34185;BME280;20454;48.100;11.776;2023-04-10T10:20:24;95909.66;;;16.72;39.01
34185;BME280;20454;48.100;11.776;2023-04-10T10:22:50;95905.34;;;16.99;38.82
34185;BME280;20454;48.100;11.776;2023-04-10T10:25:17;95902.19;;;17.52;38.08
34185;BME280;20454;48.100;11.776;2023-04-10T10:27:44;95898.19;;;17.92;38.37
34185;BME280;20454;48.100;11.776;2023-04-10T10:30:11;95892.63;;;18.23;38.46
34185;BME280;20454;48.100;11.776;2023-04-10T10:32:37;95892.03;;;18.45;35.87
34185;BME280;20454;48.100;11.776;2023-04-10T10:35:04;95883.88;;;18.40;36.92
34185;BME280;20454;48.100;11.776;2023-04-10T10:37:33;95891.06;;;18.53;36.62
34185;BME280;20454;48.100;11.776;2023-04-10T10:40:09;95886.25;;;19.04;36.32
34185;BME280;20454;48.100;11.776;2023-04-10T10:42:55;95886.78;;;19.59;32.63
34185;BME280;20454;48.100;11.776;2023-04-10T10:48:08;95867.34;;;19.73;33.51
34185;BME280;20454;48.100;11.776;2023-04-10T10:50:49;95858.72;;;20.46;31.33
34185;BME280;20454;48.100;11.776;2023-04-10T10:53:43;95847.38;;;20.90;30.93
34185;BME280;20454;48.100;11.776;2023-04-10T10:58:50;95840.81;;;21.35;30.60
34185;BME280;20454;48.100;11.776;2023-04-10T11:01:16;95834.53;;;21.48;30.97
34185;BME280;20454;48.100;11.776;2023-04-10T11:03:42;95830.00;;;22.03;30.51
34185;BME280;20454;48.100;11.776;2023-04-10T11:08:40;95815.44;;;22.41;28.69
34185;BME280;20454;48.100;11.776;2023-04-10T11:16:15;95813.00;;;22.39;27.12
34185;BME280;20454;48.100;11.776;2023-04-10T11:21:11;95816.66;;;22.83;25.64
34185;BME280;20454;48.100;11.776;2023-04-10T11:23:37;95808.84;;;23.17;27.00
34185;BME280;20454;48.100;11.776;2023-04-10T11:26:03;95803.50;;;23.76;25.06
34185;BME280;20454;48.100;11.776;2023-04-10T11:31:13;95797.09;;;23.90;25.55
34185;BME280;20454;48.100;11.776;2023-04-10T11:33:40;95785.81;;;24.25;23.05
34185;BME280;20454;48.100;11.776;2023-04-10T11:36:06;95783.38;;;24.13;24.65
34185;BME280;20454;48.100;11.776;2023-04-10T11:38:33;95791.94;;;24.20;25.71
34185;BME280;20454;48.100;11.776;2023-04-10T11:41:02;95780.59;;;24.37;24.77
34185;BME280;20454;48.100;11.776;2023-04-10T11:43:30;95777.75;;;24.55;25.88
34185;BME280;20454;48.100;11.776;2023-04-10T11:46:00;95759.91;;;24.96;23.99
34185;BME280;20454;48.100;11.776;2023-04-10T11:48:26;95774.09;;;25.17;22.15
34185;BME280;20454;48.100;11.776;2023-04-10T11:50:53;95761.06;;;24.32;23.56
34185;BME280;20454;48.100;11.776;2023-04-10T11:53:19;95762.59;;;23.95;25.49
34185;BME280;20454;48.100;11.776;2023-04-10T11:55:46;95761.06;;;24.36;23.16
34185;BME280;20454;48.100;11.776;2023-04-10T11:58:25;95761.06;;;24.29;23.56
34185;BME280;20454;48.100;11.776;2023-04-10T12:01:03;95758.97;;;24.08;23.97
34185;BME280;20454;48.100;11.776;2023-04-10T12:03:37;95763.03;;;24.11;25.19
34185;BME280;20454;48.100;11.776;2023-04-10T12:06:09;95741.53;;;24.31;24.27
34185;BME280;20454;48.100;11.776;2023-04-10T12:08:40;95744.78;;;24.26;23.78
34185;BME280;20454;48.100;11.776;2023-04-10T12:11:08;95744.38;;;24.27;23.10
34185;BME280;20454;48.100;11.776;2023-04-10T12:13:34;95742.78;;;24.33;23.94
34185;BME280;20454;48.100;11.776;2023-04-10T12:16:05;95739.97;;;24.58;23.44
34185;BME280;20454;48.100;11.776;2023-04-10T12:18:31;95737.91;;;24.34;24.05
34185;BME280;20454;48.100;11.776;2023-04-10T12:20:57;95738.72;;;24.48;23.77
34185;BME280;20454;48.100;11.776;2023-04-10T12:23:24;95733.88;;;24.66;23.18
34185;BME280;20454;48.100;11.776;2023-04-10T12:25:51;95739.94;;;24.54;24.64
34185;BME280;20454;48.100;11.776;2023-04-10T12:28:18;95735.50;;;24.60;23.28
34185;BME280;20454;48.100;11.776;2023-04-10T12:30:48;95742.44;;;24.66;22.76
34185;BME280;20454;48.100;11.776;2023-04-10T12:33:22;95744.84;;;24.64;22.21
34185;BME280;20454;48.100;11.776;2023-04-10T12:35:48;95735.06;;;24.41;22.86
34185;BME280;20454;48.100;11.776;2023-04-10T12:38:13;95740.81;;;24.79;22.41
34185;BME280;20454;48.100;11.776;2023-04-10T12:41:02;95733.03;;;24.45;22.21
34185;BME280;20454;48.100;11.776;2023-04-10T12:44:05;95738.31;;;24.29;24.44
34185;BME280;20454;48.100;11.776;2023-04-10T12:46:31;95715.16;;;24.48;23.58
34185;BME280;20454;48.100;11.776;2023-04-10T12:49:16;95735.50;;;24.64;22.26
34185;BME280;20454;48.100;11.776;2023-04-10T12:51:49;95732.63;;;24.43;22.41
34185;BME280;20454;48.100;11.776;2023-04-10T12:54:31;95727.31;;;24.38;22.80
34185;BME280;20454;48.100;11.776;2023-04-10T12:56:57;95706.19;;;24.25;22.64
34185;BME280;20454;48.100;11.776;2023-04-10T12:59:24;95709.81;;;24.01;23.83
34185;BME280;20454;48.100;11.776;2023-04-10T13:01:51;95716.34;;;24.29;23.55
34185;BME280;20454;48.100;11.776;2023-04-10T13:04:17;95711.03;;;23.93;23.63
34185;BME280;20454;48.100;11.776;2023-04-10T13:06:44;95695.97;;;23.92;24.92
34185;BME280;20454;48.100;11.776;2023-04-10T13:09:11;95699.69;;;24.21;24.84
34185;BME280;20454;48.100;11.776;2023-04-10T13:11:37;95693.59;;;24.47;24.20
34185;BME280;20454;48.100;11.776;2023-04-10T13:14:03;95696.06;;;24.59;24.58
34185;BME280;20454;48.100;11.776;2023-04-10T13:16:29;95691.19;;;24.63;24.39
34185;BME280;20454;48.100;11.776;2023-04-10T13:18:54;95694.03;;;24.77;23.40
34185;BME280;20454;48.100;11.776;2023-04-10T13:21:20;95685.47;;;24.52;22.77
34185;BME280;20454;48.100;11.776;2023-04-10T13:23:51;95683.03;;;24.23;23.11
34185;BME280;20454;48.100;11.776;2023-04-10T13:26:16;95683.00;;;24.02;24.09
34185;BME280;20454;48.100;11.776;2023-04-10T13:28:42;95682.59;;;23.96;22.94
34185;BME280;20454;48.100;11.776;2023-04-10T13:31:08;95675.66;;;23.87;24.40
34185;BME280;20454;48.100;11.776;2023-04-10T13:33:33;95683.34;;;23.83;24.51
34185;BME280;20454;48.100;11.776;2023-04-10T13:35:59;95670.41;;;23.92;23.54
34185;BME280;20454;48.100;11.776;2023-04-10T13:38:25;95663.47;;;23.93;22.90
34185;BME280;20454;48.100;11.776;2023-04-10T13:40:52;95661.81;;;23.85;22.80
34185;BME280;20454;48.100;11.776;2023-04-10T13:43:18;95655.28;;;23.78;23.92
34185;BME280;20454;48.100;11.776;2023-04-10T13:45:43;95658.13;;;23.74;22.76
34185;BME280;20454;48.100;11.776;2023-04-10T13:48:09;95646.25;;;23.37;23.36
34185;BME280;20454;48.100;11.776;2023-04-10T13:50:35;95647.97;;;23.70;22.64
34185;BME280;20454;48.100;11.776;2023-04-10T13:53:00;95651.59;;;23.49;23.22
34185;BME280;20454;48.100;11.776;2023-04-10T13:55:26;95633.31;;;23.43;23.78
34185;BME280;20454;48.100;11.776;2023-04-10T13:57:52;95645.03;;;23.38;23.77
34185;BME280;20454;48.100;11.776;2023-04-10T14:00:17;95630.69;;;23.03;23.17
34185;BME280;20454;48.100;11.776;2023-04-10T14:02:44;95632.38;;;21.96;24.62
34185;BME280;20454;48.100;11.776;2023-04-10T14:05:10;95647.94;;;21.73;25.14
34185;BME280;20454;48.100;11.776;2023-04-10T14:07:35;95630.97;;;21.07;25.86
34185;BME280;20454;48.100;11.776;2023-04-10T14:10:01;95634.91;;;20.69;26.35
34185;BME280;20454;48.100;11.776;2023-04-10T14:12:27;95634.78;;;20.33;27.10
34185;BME280;20454;48.100;11.776;2023-04-10T14:14:53;95630.44;;;19.91;27.38
34185;BME280;20454;48.100;11.776;2023-04-10T14:17:18;95647.22;;;19.39;28.22
34185;BME280;20454;48.100;11.776;2023-04-10T14:19:44;95640.91;;;18.85;29.38
34185;BME280;20454;48.100;11.776;2023-04-10T14:22:16;95631.22;;;18.48;29.48
34185;BME280;20454;48.100;11.776;2023-04-10T14:24:42;95635.16;;;18.28;31.72
34185;BME280;20454;48.100;11.776;2023-04-10T14:27:08;95633.69;;;18.15;30.47
34185;BME280;20454;48.100;11.776;2023-04-10T14:29:33;95623.47;;;17.91;30.60
34185;BME280;20454;48.100;11.776;2023-04-10T14:31:59;95623.91;;;17.78;30.52
34185;BME280;20454;48.100;11.776;2023-04-10T14:34:25;95623.31;;;17.53;31.12
34185;BME280;20454;48.100;11.776;2023-04-10T14:36:50;95623.06;;;17.31;31.30
34185;BME280;20454;48.100;11.776;2023-04-10T14:39:23;95617.91;;;17.17;32.07
34185;BME280;20454;48.100;11.776;2023-04-10T14:41:50;95610.97;;;16.84;32.30
34185;BME280;20454;48.100;11.776;2023-04-10T14:44:16;95598.53;;;16.57;32.92
34185;BME280;20454;48.100;11.776;2023-04-10T14:46:42;95598.63;;;16.45;32.71
34185;BME280;20454;48.100;11.776;2023-04-10T14:49:08;95607.03;;;16.45;33.01
34185;BME280;20454;48.100;11.776;2023-04-10T14:51:34;95590.56;;;16.20;33.37
34185;BME280;20454;48.100;11.776;2023-04-10T14:53:59;95603.94;;;16.11;33.76
34185;BME280;20454;48.100;11.776;2023-04-10T14:56:25;95607.69;;;16.15;32.50
34185;BME280;20454;48.100;11.776;2023-04-10T14:58:51;95608.16;;;16.05;33.10
34185;BME280;20454;48.100;11.776;2023-04-10T15:01:16;95598.16;;;15.80;34.45
34185;BME280;20454;48.100;11.776;2023-04-10T15:03:45;95599.81;;;15.69;34.67
34185;BME280;20454;48.100;11.776;2023-04-10T15:06:12;95602.84;;;15.64;35.25
34185;BME280;20454;48.100;11.776;2023-04-10T15:08:37;95599.34;;;15.67;34.69
34185;BME280;20454;48.100;11.776;2023-04-10T15:11:03;95591.41;;;15.57;35.94
34185;BME280;20454;48.100;11.776;2023-04-10T15:13:29;95588.50;;;15.41;36.25
34185;BME280;20454;48.100;11.776;2023-04-10T15:15:55;95591.28;;;15.53;35.94
34185;BME280;20454;48.100;11.776;2023-04-10T15:18:21;95585.31;;;15.43;35.60
34185;BME280;20454;48.100;11.776;2023-04-10T15:20:46;95593.28;;;15.41;36.31
34185;BME280;20454;48.100;11.776;2023-04-10T15:23:12;95582.66;;;15.34;35.32
34185;BME280;20454;48.100;11.776;2023-04-10T15:25:38;95583.53;;;15.26;35.87
34185;BME280;20454;48.100;11.776;2023-04-10T15:28:03;95577.56;;;15.16;37.25
34185;BME280;20454;48.100;11.776;2023-04-10T15:30:29;95577.13;;;15.26;35.78
34185;BME280;20454;48.100;11.776;2023-04-10T15:32:55;95569.41;;;15.11;36.73
34185;BME280;20454;48.100;11.776;2023-04-10T15:35:21;95577.69;;;15.07;36.87
34185;BME280;20454;48.100;11.776;2023-04-10T15:37:49;95564.97;;;14.98;36.84
34185;BME280;20454;48.100;11.776;2023-04-10T15:40:14;95566.34;;;14.92;36.66
34185;BME280;20454;48.100;11.776;2023-04-10T15:42:40;95562.25;;;14.89;36.87
34185;BME280;20454;48.100;11.776;2023-04-10T15:45:06;95561.31;;;14.74;37.67
34185;BME280;20454;48.100;11.776;2023-04-10T15:47:32;95557.78;;;14.77;38.21
34185;BME280;20454;48.100;11.776;2023-04-10T15:49:58;95557.09;;;14.68;38.00
34185;BME280;20454;48.100;11.776;2023-04-10T15:52:23;95554.75;;;14.70;38.06
34185;BME280;20454;48.100;11.776;2023-04-10T15:54:49;95550.06;;;14.62;38.74
34185;BME280;20454;48.100;11.776;2023-04-10T15:57:15;95558.56;;;14.53;38.87
34185;BME280;20454;48.100;11.776;2023-04-10T15:59:41;95546.50;;;14.41;39.15
34185;BME280;20454;48.100;11.776;2023-04-10T16:02:07;95550.47;;;14.40;39.54
34185;BME280;20454;48.100;11.776;2023-04-10T16:04:32;95553.41;;;14.43;39.42
34185;BME280;20454;48.100;11.776;2023-04-10T16:06:59;95545.69;;;14.40;39.12
34185;BME280;20454;48.100;11.776;2023-04-10T16:09:25;95549.78;;;14.43;39.13
34185;BME280;20454;48.100;11.776;2023-04-10T16:11:51;95554.69;;;14.46;39.71
34185;BME280;20454;48.100;11.776;2023-04-10T16:14:17;95554.47;;;14.51;39.27
34185;BME280;20454;48.100;11.776;2023-04-10T16:16:44;95559.94;;;14.47;39.99
34185;BME280;20454;48.100;11.776;2023-04-10T16:19:09;95556.53;;;14.42;39.82
34185;BME280;20454;48.100;11.776;2023-04-10T16:21:35;95555.94;;;14.36;39.52
34185;BME280;20454;48.100;11.776;2023-04-10T16:24:01;95549.97;;;14.26;39.67
34185;BME280;20454;48.100;11.776;2023-04-10T16:26:27;95542.66;;;14.13;39.63
34185;BME280;20454;48.100;11.776;2023-04-10T16:28:52;95535.81;;;14.02;40.62
34185;BME280;20454;48.100;11.776;2023-04-10T16:31:18;95535.41;;;13.91;41.64
34185;BME280;20454;48.100;11.776;2023-04-10T16:33:43;95534.34;;;13.84;40.52
34185;BME280;20454;48.100;11.776;2023-04-10T16:36:09;95540.47;;;13.77;41.00
34185;BME280;20454;48.100;11.776;2023-04-10T16:38:35;95537.97;;;13.64;41.80
34185;BME280;20454;48.100;11.776;2023-04-10T16:41:04;95537.19;;;13.55;41.75
34185;BME280;20454;48.100;11.776;2023-04-10T16:43:30;95534.25;;;13.51;42.76
34185;BME280;20454;48.100;11.776;2023-04-10T16:45:57;95537.41;;;13.50;43.21
34185;BME280;20454;48.100;11.776;2023-04-10T16:48:23;95534.63;;;13.50;42.89
34185;BME280;20454;48.100;11.776;2023-04-10T16:50:48;95530.84;;;13.46;42.51
34185;BME280;20454;48.100;11.776;2023-04-10T16:53:14;95532.72;;;13.42;42.85
34185;BME280;20454;48.100;11.776;2023-04-10T16:55:40;95540.13;;;13.38;43.19
34185;BME280;20454;48.100;11.776;2023-04-10T16:58:06;95529.00;;;13.29;43.53
34185;BME280;20454;48.100;11.776;2023-04-10T17:00:31;95535.41;;;13.30;43.28
34185;BME280;20454;48.100;11.776;2023-04-10T17:02:57;95540.25;;;13.21;43.19
34185;BME280;20454;48.100;11.776;2023-04-10T17:05:23;95548.81;;;13.16;43.55
34185;BME280;20454;48.100;11.776;2023-04-10T17:07:49;95531.81;;;13.00;44.49
34185;BME280;20454;48.100;11.776;2023-04-10T17:10:14;95533.09;;;13.03;44.31
34185;BME280;20454;48.100;11.776;2023-04-10T17:12:40;95529.19;;;12.95;44.41
34185;BME280;20454;48.100;11.776;2023-04-10T17:15:06;95513.50;;;12.82;44.84
34185;BME280;20454;48.100;11.776;2023-04-10T17:17:32;95512.66;;;12.82;45.87
34185;BME280;20454;48.100;11.776;2023-04-10T17:19:58;95517.13;;;12.74;46.30
34185;BME280;20454;48.100;11.776;2023-04-10T17:22:24;95516.34;;;12.65;45.58
34185;BME280;20454;48.100;11.776;2023-04-10T17:24:50;95509.16;;;12.56;46.96
34185;BME280;20454;48.100;11.776;2023-04-10T17:27:15;95506.22;;;12.44;47.96
34185;BME280;20454;48.100;11.776;2023-04-10T17:29:41;95508.72;;;12.37;47.57
34185;BME280;20454;48.100;11.776;2023-04-10T17:32:07;95496.16;;;12.22;47.30
34185;BME280;20454;48.100;11.776;2023-04-10T17:34:33;95498.31;;;12.17;48.18
34185;BME280;20454;48.100;11.776;2023-04-10T17:36:59;95497.84;;;12.06;49.12
34185;BME280;20454;48.100;11.776;2023-04-10T17:39:25;95492.91;;;11.95;49.44
34185;BME280;20454;48.100;11.776;2023-04-10T17:41:51;95495.41;;;11.88;49.92
34185;BME280;20454;48.100;11.776;2023-04-10T17:44:17;95491.31;;;11.77;50.26
34185;BME280;20454;48.100;11.776;2023-04-10T17:46:44;95490.50;;;11.68;50.74
34185;BME280;20454;48.100;11.776;2023-04-10T17:49:10;95488.22;;;11.61;50.91
34185;BME280;20454;48.100;11.776;2023-04-10T17:51:36;95478.69;;;11.45;51.51
34185;BME280;20454;48.100;11.776;2023-04-10T17:54:02;95475.44;;;11.35;52.19
34185;BME280;20454;48.100;11.776;2023-04-10T20:50:18;95388.31;;;8.62;70.83
34185;BME280;20454;48.100;11.776;2023-04-10T20:52:44;95390.75;;;8.63;71.35
34185;BME280;20454;48.100;11.776;2023-04-10T20:55:09;95395.50;;;8.63;71.72
34185;BME280;20454;48.100;11.776;2023-04-10T20:57:35;95395.13;;;8.56;71.41
34185;BME280;20454;48.100;11.776;2023-04-10T21:00:01;95400.66;;;8.56;71.40
34185;BME280;20454;48.100;11.776;2023-04-10T21:02:26;95410.91;;;8.55;71.46
34185;BME280;20454;48.100;11.776;2023-04-10T21:04:52;95401.28;;;8.53;71.74
34185;BME280;20454;48.100;11.776;2023-04-10T21:07:17;95405.47;;;8.50;72.01
34185;BME280;20454;48.100;11.776;2023-04-10T21:09:43;95403.97;;;8.44;72.17
34185;BME280;20454;48.100;11.776;2023-04-10T21:12:10;95396.28;;;8.41;72.27
34185;BME280;20454;48.100;11.776;2023-04-10T21:14:35;95400.69;;;8.42;73.10
34185;BME280;20454;48.100;11.776;2023-04-10T21:17:01;95397.72;;;8.39;73.29
34185;BME280;20454;48.100;11.776;2023-04-10T21:19:27;95384.97;;;8.38;72.90
34185;BME280;20454;48.100;11.776;2023-04-10T21:21:52;95371.88;;;8.30;74.10
34185;BME280;20454;48.100;11.776;2023-04-10T21:24:18;95386.22;;;8.32;74.10